createdAt,value
2019-01-12T00:00:21.980Z,0.60
2019-01-12T00:02:49.605Z,0.60
2019-01-12T00:05:17.296Z,0.60
2019-01-12T00:15:13.814Z,0.60
2019-01-12T00:17:41.430Z,0.50
2019-01-12T00:20:09.156Z,0.50
2019-01-12T00:22:36.740Z,0.50
2019-01-12T00:25:04.917Z,0.50
2019-01-12T00:27:34.409Z,0.60
2019-01-12T00:30:02.105Z,0.60
2019-01-12T00:32:29.745Z,0.70
2019-01-12T00:35:00.707Z,0.90
2019-01-12T00:37:28.357Z,0.70
2019-01-12T00:39:56.066Z,0.70
2019-01-12T00:42:23.705Z,0.70
2019-01-12T00:44:51.296Z,0.60
2019-01-12T00:47:18.976Z,0.80
2019-01-12T00:49:46.569Z,0.80
2019-01-12T00:52:14.392Z,0.90
2019-01-12T00:54:42.056Z,0.90
2019-01-12T00:57:09.744Z,0.80
2019-01-12T00:59:37.412Z,0.70
2019-01-12T01:02:05.052Z,0.60
2019-01-12T01:04:32.777Z,0.50
2019-01-12T01:07:00.488Z,0.60
2019-01-12T01:09:28.076Z,0.60
2019-01-12T01:11:55.892Z,0.50
2019-01-12T01:14:23.508Z,0.40
2019-01-12T01:16:51.205Z,0.40
2019-01-12T01:19:18.805Z,0.30
2019-01-12T01:21:46.429Z,0.20
2019-01-12T01:24:14.078Z,0.30
2019-01-12T01:26:41.690Z,0.30
2019-01-12T01:29:09.390Z,0.40
2019-01-12T01:31:37.976Z,0.50
2019-01-12T01:34:05.624Z,0.60
2019-01-12T01:36:33.294Z,0.80
2019-01-12T01:39:00.947Z,0.70
2019-01-12T01:41:28.705Z,0.60
2019-01-12T01:43:56.364Z,0.70
2019-01-12T01:46:23.968Z,0.70
2019-01-12T01:48:51.651Z,0.80
2019-01-12T01:51:19.275Z,0.70
2019-01-12T01:53:46.948Z,0.80
2019-01-12T01:56:14.680Z,0.80
2019-01-12T01:58:42.356Z,0.90
2019-01-12T02:01:09.975Z,0.90
2019-01-12T02:03:37.660Z,0.70
2019-01-12T02:06:05.298Z,0.70
2019-01-12T02:08:32.944Z,0.60
2019-01-12T02:11:00.628Z,0.60
2019-01-12T02:13:28.465Z,0.60
2019-01-12T02:15:56.127Z,0.70
2019-01-12T02:18:23.745Z,0.70
2019-01-12T02:20:51.440Z,0.80
2019-01-12T02:23:19.048Z,0.70
2019-01-12T02:25:46.743Z,0.50
2019-01-12T02:28:14.352Z,0.70
2019-01-12T02:30:42.018Z,0.70
2019-01-12T02:33:09.667Z,0.70
2019-01-12T02:35:37.418Z,0.60
2019-01-12T02:38:05.203Z,0.60
2019-01-12T02:40:32.842Z,0.70
2019-01-12T02:43:00.586Z,0.70
2019-01-12T02:45:28.345Z,0.60
2019-01-12T02:47:56.521Z,0.50
2019-01-12T02:50:24.241Z,0.50
2019-01-12T02:52:51.972Z,0.50
2019-01-12T02:55:19.636Z,0.40
2019-01-12T02:57:47.320Z,0.60
2019-01-12T03:00:17.151Z,0.50
2019-01-12T03:02:44.816Z,0.60
2019-01-12T03:05:13.092Z,0.60
2019-01-12T03:07:40.838Z,0.60
2019-01-12T03:10:09.423Z,0.60
2019-01-12T03:12:37.095Z,0.60
2019-01-12T03:15:07.437Z,0.70
2019-01-12T03:17:35.101Z,0.70
2019-01-12T03:20:04.583Z,0.70
2019-01-12T03:22:32.185Z,0.70
2019-01-12T03:24:59.849Z,0.70
2019-01-12T03:27:27.561Z,0.80
2019-01-12T03:29:55.207Z,0.80
2019-01-12T03:32:22.836Z,1.00
2019-01-12T03:34:50.455Z,1.00
2019-01-12T03:37:18.203Z,1.00
2019-01-12T03:39:46.059Z,1.00
2019-01-12T03:42:13.797Z,0.90
2019-01-12T03:44:43.812Z,1.00
2019-01-12T03:47:11.476Z,1.00
2019-01-12T03:49:39.197Z,0.90
2019-01-12T03:52:06.918Z,0.80
2019-01-12T03:54:34.623Z,0.90
2019-01-12T03:57:02.276Z,0.90
2019-01-12T03:59:29.931Z,1.10
2019-01-12T04:01:57.583Z,1.10
2019-01-12T04:04:25.488Z,1.10
2019-01-12T04:06:53.189Z,1.20
2019-01-12T04:09:20.816Z,1.00
2019-01-12T04:11:49.793Z,1.10
2019-01-12T04:14:17.484Z,1.10
2019-01-12T04:16:45.134Z,1.00
2019-01-12T04:19:12.824Z,0.90
2019-01-12T04:21:40.456Z,1.10
2019-01-12T04:24:08.121Z,1.10
2019-01-12T04:26:35.797Z,1.10
2019-01-12T04:29:03.555Z,1.20
2019-01-12T04:31:32.354Z,1.20
2019-01-12T04:33:59.995Z,1.00
2019-01-12T04:36:27.633Z,0.90
2019-01-12T04:38:55.332Z,1.00
2019-01-12T04:41:22.994Z,0.90
2019-01-12T04:43:50.677Z,1.00
2019-01-12T04:46:18.433Z,1.00
2019-01-12T04:48:46.148Z,0.80
2019-01-12T04:51:13.926Z,0.80
2019-01-12T04:53:41.627Z,1.00
2019-01-12T04:56:09.318Z,0.90
2019-01-12T04:58:47.184Z,0.80
2019-01-12T05:01:14.829Z,0.60
2019-01-12T05:03:42.546Z,0.60
2019-01-12T05:06:10.253Z,0.80
2019-01-12T05:08:38.013Z,0.80
2019-01-12T05:11:08.048Z,0.70
2019-01-12T05:13:36.021Z,1.00
2019-01-12T05:16:03.823Z,0.80
2019-01-12T05:18:31.493Z,0.60
2019-01-12T05:20:59.114Z,0.60
2019-01-12T05:23:26.825Z,0.50
2019-01-12T05:25:54.510Z,0.70
2019-01-12T05:28:22.517Z,0.90
2019-01-12T05:30:50.230Z,0.80
2019-01-12T05:33:17.970Z,0.90
2019-01-12T05:35:47.645Z,1.00
2019-01-12T05:38:15.548Z,1.00
2019-01-12T05:40:43.269Z,0.80
2019-01-12T05:43:10.952Z,0.70
2019-01-12T05:45:38.568Z,0.60
2019-01-12T05:48:06.495Z,0.80
2019-01-12T05:50:34.221Z,0.80
2019-01-12T05:53:01.935Z,0.70
2019-01-12T05:55:29.602Z,0.90
2019-01-12T05:57:57.305Z,0.80
2019-01-12T06:00:24.937Z,0.80
2019-01-12T06:02:53.533Z,0.60
2019-01-12T06:05:21.347Z,0.70
2019-01-12T06:07:49.059Z,0.70
2019-01-12T06:10:16.704Z,0.70
2019-01-12T06:12:44.341Z,0.90
2019-01-12T06:15:12.492Z,0.80
2019-01-12T06:17:40.240Z,0.80
2019-01-12T06:20:08.776Z,0.90
2019-01-12T06:22:36.460Z,0.80
2019-01-12T06:25:05.083Z,0.80
2019-01-12T06:27:32.728Z,0.70
2019-01-12T06:30:00.677Z,0.90
2019-01-12T06:32:28.274Z,0.80
2019-01-12T06:34:55.999Z,0.80
2019-01-12T06:37:23.687Z,0.80
2019-01-12T06:39:51.434Z,0.70
2019-01-12T06:42:19.325Z,0.70
2019-01-12T06:44:46.955Z,0.70
2019-01-12T06:47:14.636Z,0.60
2019-01-12T06:49:42.565Z,0.70
2019-01-12T06:52:10.340Z,0.60
2019-01-12T06:54:37.960Z,0.60
2019-01-12T06:57:05.596Z,0.80
2019-01-12T06:59:34.306Z,0.90
2019-01-12T07:02:02.039Z,0.90
2019-01-12T07:04:29.657Z,0.80
2019-01-12T07:06:57.248Z,0.80
2019-01-12T07:09:25.025Z,0.90
2019-01-12T07:11:52.829Z,0.80
2019-01-12T07:14:20.524Z,0.80
2019-01-12T07:16:48.176Z,0.80
2019-01-12T07:19:17.860Z,0.90
2019-01-12T07:21:45.481Z,0.90
2019-01-12T07:24:13.203Z,0.90
2019-01-12T07:26:40.905Z,1.10
2019-01-12T07:29:08.522Z,1.00
2019-01-12T07:31:36.124Z,1.00
2019-01-12T07:34:03.920Z,1.00
2019-01-12T07:36:31.746Z,1.10
2019-01-12T07:38:59.385Z,1.00
2019-01-12T07:41:27.015Z,0.90
2019-01-12T07:43:54.793Z,0.90
2019-01-12T07:46:22.462Z,0.90
2019-01-12T07:48:50.143Z,1.00
2019-01-12T07:51:17.755Z,1.20
2019-01-12T07:53:45.419Z,1.30
2019-01-12T07:56:14.462Z,1.50
2019-01-12T07:58:42.083Z,1.70
2019-01-12T08:01:09.764Z,1.70
2019-01-12T08:03:37.476Z,1.70
2019-01-12T08:06:05.261Z,1.70
2019-01-12T08:08:32.855Z,1.60
2019-01-12T08:11:00.808Z,1.50
2019-01-12T08:13:28.457Z,1.60
2019-01-12T08:15:56.033Z,1.60
2019-01-12T08:18:23.681Z,1.50
2019-01-12T08:20:51.279Z,1.60
2019-01-12T08:23:18.953Z,1.70
2019-01-12T08:25:49.117Z,1.70
2019-01-12T08:28:16.804Z,1.70
2019-01-12T08:30:44.703Z,1.70
2019-01-12T08:33:12.305Z,1.70
2019-01-12T08:35:39.969Z,1.70
2019-01-12T08:38:07.644Z,1.70
2019-01-12T08:40:35.311Z,1.80
2019-01-12T08:43:03.288Z,1.80
2019-01-12T08:45:30.873Z,1.80
2019-01-12T08:47:58.608Z,1.80
2019-01-12T08:50:26.344Z,1.80
2019-01-12T08:52:54.034Z,1.80
2019-01-12T08:55:21.780Z,1.90
2019-01-12T08:57:50.508Z,1.90
2019-01-12T09:00:20.089Z,1.90
2019-01-12T09:02:47.851Z,2.00
2019-01-12T09:05:15.704Z,2.00
2019-01-12T09:07:43.358Z,2.00
2019-01-12T09:10:14.106Z,2.10
2019-01-12T09:12:41.760Z,2.10
2019-01-12T09:15:09.744Z,2.10
2019-01-12T09:17:37.358Z,2.10
2019-01-12T09:20:06.577Z,2.20
2019-01-12T09:22:34.256Z,2.30
2019-01-12T09:25:01.896Z,2.30
2019-01-12T09:27:31.069Z,2.40
2019-01-12T09:29:58.816Z,2.40
2019-01-12T09:32:26.602Z,2.50
2019-01-12T09:34:54.310Z,2.50
2019-01-12T09:37:23.340Z,2.50
2019-01-12T09:39:51.396Z,2.70
2019-01-12T09:42:19.276Z,2.80
2019-01-12T09:44:46.901Z,2.70
2019-01-12T09:47:15.751Z,2.60
2019-01-12T09:49:43.396Z,2.70
2019-01-12T09:52:11.061Z,2.80
2019-01-12T09:54:38.720Z,2.70
2019-01-12T09:57:06.340Z,2.80
2019-01-12T09:59:33.988Z,3.00
2019-01-12T10:02:01.612Z,2.90
2019-01-12T10:04:29.264Z,2.70
2019-01-12T10:06:57.381Z,2.70
2019-01-12T10:09:25.047Z,2.50
2019-01-12T10:11:52.805Z,2.70
2019-01-12T10:14:20.508Z,2.70
2019-01-12T10:16:48.187Z,2.70
2019-01-12T10:19:15.870Z,2.60
2019-01-12T10:21:43.528Z,2.70
2019-01-12T10:24:11.161Z,2.70
2019-01-12T10:26:38.831Z,2.70
2019-01-12T10:29:06.700Z,2.70
2019-01-12T10:31:34.356Z,2.60
2019-01-12T10:34:01.980Z,2.60
2019-01-12T10:36:29.788Z,2.60
2019-01-12T10:38:59.782Z,2.60
2019-01-12T10:41:27.548Z,2.60
2019-01-12T10:43:55.301Z,2.70
2019-01-12T10:46:23.157Z,2.60
2019-01-12T10:48:51.000Z,2.80
2019-01-12T10:51:18.628Z,2.70
2019-01-12T10:53:46.265Z,2.80
2019-01-12T10:56:18.561Z,2.80
2019-01-12T10:58:47.489Z,2.80
2019-01-12T11:01:15.140Z,2.80
2019-01-12T11:03:42.735Z,2.70
2019-01-12T11:06:10.508Z,2.80
2019-01-12T11:08:39.609Z,2.90
2019-01-12T11:11:07.269Z,2.70
2019-01-12T11:13:34.909Z,2.70
2019-01-12T11:16:02.656Z,2.60
2019-01-12T11:18:30.920Z,2.70
2019-01-12T11:20:58.604Z,2.70
2019-01-12T11:23:26.379Z,2.70
2019-01-12T11:25:54.100Z,2.70
2019-01-12T11:28:21.884Z,2.60
2019-01-12T11:30:49.572Z,2.80
2019-01-12T11:33:17.195Z,2.70
2019-01-12T11:35:44.876Z,2.80
2019-01-12T11:38:12.535Z,2.90
2019-01-12T11:40:40.469Z,2.90
2019-01-12T11:43:08.153Z,3.10
2019-01-12T11:45:36.824Z,3.10
2019-01-12T11:48:04.486Z,3.00
2019-01-12T11:50:32.063Z,3.00
2019-01-12T11:53:01.099Z,3.00
2019-01-12T11:55:28.807Z,3.00
2019-01-12T11:57:56.545Z,3.20
2019-01-12T12:00:28.655Z,3.10
2019-01-12T12:02:56.556Z,3.10
2019-01-12T12:05:24.777Z,3.10
2019-01-12T12:07:52.767Z,3.10
2019-01-12T12:10:20.568Z,3.20
2019-01-12T12:12:48.255Z,3.20
2019-01-12T12:15:16.232Z,3.30
2019-01-12T12:17:43.857Z,3.40
2019-01-12T12:20:16.540Z,3.50
2019-01-12T12:22:46.612Z,3.50
2019-01-12T12:25:14.383Z,3.50
2019-01-12T12:27:42.028Z,3.60
2019-01-12T12:30:13.608Z,3.80
2019-01-12T12:32:41.277Z,3.80
2019-01-12T12:35:08.959Z,3.90
2019-01-12T12:37:36.664Z,4.10
2019-01-12T12:40:05.866Z,4.20
2019-01-12T12:42:33.805Z,4.00
2019-01-12T12:45:01.412Z,4.10
2019-01-12T12:47:29.052Z,4.20
2019-01-12T12:49:56.727Z,4.10
2019-01-12T12:52:24.353Z,4.00
2019-01-12T12:54:52.104Z,4.00
2019-01-12T12:57:19.804Z,4.10
2019-01-12T12:59:47.437Z,4.20
2019-01-12T13:02:15.164Z,4.30
2019-01-12T13:04:42.826Z,4.20
2019-01-12T13:07:10.524Z,4.10
2019-01-12T13:09:38.231Z,4.20
2019-01-12T13:12:06.144Z,4.30
2019-01-12T13:14:33.981Z,4.10
2019-01-12T13:17:04.540Z,3.80
2019-01-12T13:19:32.209Z,3.70
2019-01-12T13:22:01.048Z,3.50
2019-01-12T13:24:28.687Z,3.50
2019-01-12T13:26:56.436Z,3.60
2019-01-12T13:29:24.170Z,3.50
2019-01-12T13:31:53.851Z,3.80
2019-01-12T13:34:21.522Z,3.70
2019-01-12T13:36:49.182Z,3.60
2019-01-12T13:39:16.815Z,3.50
2019-01-12T13:41:44.461Z,3.60
2019-01-12T13:44:12.089Z,3.60
2019-01-12T13:46:39.730Z,3.70
2019-01-12T13:49:07.372Z,3.60
2019-01-12T13:51:35.252Z,3.50
2019-01-12T13:54:03.156Z,3.50
2019-01-12T13:56:30.735Z,3.60
2019-01-12T13:58:58.405Z,3.70
2019-01-12T14:01:26.218Z,3.80
2019-01-12T14:03:54.120Z,3.80
2019-01-12T14:06:21.829Z,3.80
2019-01-12T14:08:49.553Z,3.70
2019-01-12T14:11:17.175Z,3.70
2019-01-12T14:13:44.826Z,3.70
2019-01-12T14:16:12.962Z,3.70
2019-01-12T14:18:40.641Z,3.70
2019-01-12T14:21:08.321Z,3.80
2019-01-12T14:23:36.478Z,3.90
2019-01-12T14:26:04.290Z,3.90
2019-01-12T14:28:32.027Z,4.00
2019-01-12T14:30:59.737Z,3.90
2019-01-12T14:33:28.852Z,3.80
2019-01-12T14:35:56.592Z,3.80
2019-01-12T14:38:24.556Z,3.80
2019-01-12T14:40:52.174Z,3.70
2019-01-12T14:43:22.673Z,3.70
2019-01-12T14:45:50.338Z,3.60
2019-01-12T14:48:18.072Z,3.60
2019-01-12T14:50:45.682Z,3.60
2019-01-12T14:53:13.379Z,3.60
2019-01-12T14:55:41.077Z,3.50
2019-01-12T14:58:08.673Z,3.50
2019-01-12T15:00:36.352Z,3.50
2019-01-12T15:03:04.066Z,3.50
2019-01-12T15:05:32.936Z,3.40
2019-01-12T15:08:00.547Z,3.30
2019-01-12T15:10:29.656Z,3.30
2019-01-12T15:12:57.370Z,3.40
2019-01-12T15:15:28.184Z,3.50
2019-01-12T15:17:58.241Z,3.40
2019-01-12T15:20:27.779Z,3.50
2019-01-12T15:22:57.766Z,3.40
2019-01-12T15:25:25.701Z,3.30
2019-01-12T15:27:53.468Z,3.40
2019-01-12T15:30:25.654Z,3.30
2019-01-12T15:32:53.697Z,3.30
2019-01-12T15:35:21.921Z,3.20
2019-01-12T15:37:49.565Z,3.20
2019-01-12T15:40:18.220Z,3.20
2019-01-12T15:42:45.911Z,3.20
2019-01-12T15:45:15.760Z,3.20
2019-01-12T15:47:43.598Z,3.20
2019-01-12T15:50:14.158Z,3.20
2019-01-12T15:52:41.790Z,3.10
2019-01-12T15:55:09.393Z,3.10
2019-01-12T15:57:39.160Z,3.10
2019-01-12T16:00:10.509Z,3.10
2019-01-12T16:02:40.003Z,3.10
2019-01-12T16:05:07.771Z,3.10
2019-01-12T16:07:35.432Z,3.10
2019-01-12T16:10:04.350Z,3.10
2019-01-12T16:12:32.164Z,3.20
2019-01-12T16:14:59.870Z,3.10
2019-01-12T16:17:28.631Z,3.10
2019-01-12T16:19:56.494Z,3.10
2019-01-12T16:22:24.304Z,3.10
2019-01-12T16:24:52.313Z,3.10
2019-01-12T16:27:19.975Z,3.10
2019-01-12T16:29:47.683Z,3.10
2019-01-12T16:32:15.333Z,3.10
2019-01-12T16:34:43.040Z,3.20
2019-01-12T16:37:10.752Z,3.20
2019-01-12T16:39:38.450Z,3.20
2019-01-12T16:42:08.393Z,3.20
2019-01-12T16:44:36.068Z,3.20
2019-01-12T16:47:04.093Z,3.30
2019-01-12T16:49:31.773Z,3.30
2019-01-12T16:52:02.331Z,3.40
2019-01-12T16:54:29.988Z,3.40
2019-01-12T16:56:57.662Z,3.30
2019-01-12T16:59:25.405Z,3.30
2019-01-12T17:01:52.992Z,3.30
2019-01-12T17:04:20.704Z,3.30
2019-01-12T17:06:48.383Z,3.30
2019-01-12T17:09:16.064Z,3.50
2019-01-12T17:11:43.700Z,3.50
2019-01-12T17:14:11.460Z,3.40
2019-01-12T17:16:39.081Z,3.60
2019-01-12T17:19:06.724Z,3.40
2019-01-12T17:21:34.368Z,3.30
2019-01-12T17:24:02.065Z,3.20
2019-01-12T17:26:29.721Z,3.10
2019-01-12T17:28:57.655Z,3.10
2019-01-12T17:31:25.445Z,3.00
2019-01-12T17:33:53.141Z,3.00
2019-01-12T17:36:20.790Z,2.90
2019-01-12T17:38:49.464Z,2.90
2019-01-12T17:41:17.203Z,2.90
2019-01-12T17:43:44.900Z,2.80
2019-01-12T17:46:12.581Z,2.90
2019-01-12T17:48:40.314Z,3.00
2019-01-12T17:51:08.049Z,3.10
2019-01-12T17:53:35.958Z,3.20
2019-01-12T17:56:03.922Z,3.30
2019-01-12T17:58:31.628Z,3.30
2019-01-12T18:00:59.316Z,3.60
2019-01-12T18:03:26.943Z,3.60
2019-01-12T18:05:56.850Z,3.70
2019-01-12T18:08:24.488Z,3.60
2019-01-12T18:10:52.184Z,3.70
2019-01-12T18:13:19.795Z,3.60
2019-01-12T18:15:47.475Z,3.50
2019-01-12T18:18:15.157Z,3.50
2019-01-12T18:20:42.904Z,3.60
2019-01-12T18:23:10.608Z,3.70
2019-01-12T18:25:38.240Z,3.70
2019-01-12T18:28:05.974Z,3.60
2019-01-12T18:30:33.764Z,3.60
2019-01-12T18:33:01.399Z,3.70
2019-01-12T18:35:29.048Z,3.70
2019-01-12T18:37:56.933Z,3.80
2019-01-12T18:40:24.644Z,3.80
2019-01-12T18:42:52.376Z,3.80
2019-01-12T18:45:20.052Z,3.90
2019-01-12T18:47:47.681Z,4.10
2019-01-12T18:50:20.461Z,4.10
2019-01-12T18:52:48.254Z,4.20
2019-01-12T18:55:16.101Z,4.10
2019-01-12T18:57:43.772Z,4.40
2019-01-12T19:00:18.592Z,4.40
2019-01-12T19:02:44.472Z,4.50
2019-01-12T19:05:12.128Z,4.30
2019-01-12T19:07:39.836Z,4.30
2019-01-12T19:10:08.736Z,4.20
2019-01-12T19:12:36.508Z,4.10
2019-01-12T19:15:06.367Z,4.10
2019-01-12T19:17:34.108Z,4.00
2019-01-12T19:20:01.803Z,4.00
2019-01-12T19:22:29.523Z,3.90
2019-01-12T19:24:57.373Z,3.80
2019-01-12T19:27:24.983Z,3.80
2019-01-12T19:29:52.646Z,3.90
2019-01-12T19:32:20.258Z,3.80
2019-01-12T19:34:47.891Z,3.90
2019-01-12T19:37:15.622Z,3.90
2019-01-12T19:39:43.252Z,3.80
2019-01-12T19:42:10.852Z,3.80
2019-01-12T19:44:38.550Z,4.00
2019-01-12T19:47:06.176Z,4.00
2019-01-12T19:49:34.013Z,3.90
2019-01-12T19:52:01.708Z,3.90
2019-01-12T19:54:29.452Z,3.80
2019-01-12T19:56:57.203Z,3.80
2019-01-12T19:59:24.833Z,3.80
2019-01-12T20:01:53.447Z,3.80
2019-01-12T20:04:21.108Z,3.80
2019-01-12T20:06:49.593Z,3.80
2019-01-12T20:09:17.223Z,3.80
2019-01-12T20:11:45.083Z,3.80
2019-01-12T20:14:12.794Z,3.80
2019-01-12T20:16:40.408Z,3.80
2019-01-12T20:19:08.050Z,3.80
2019-01-12T20:21:35.701Z,3.80
2019-01-12T20:24:03.510Z,3.90
2019-01-12T20:26:31.184Z,3.90
2019-01-12T20:28:58.902Z,3.80
2019-01-12T20:31:55.681Z,3.70
2019-01-12T20:34:41.998Z,3.70
2019-01-12T20:37:55.520Z,3.60
2019-01-12T20:41:05.012Z,3.50
2019-01-12T20:43:57.346Z,3.50
2019-01-12T20:46:58.693Z,3.50
2019-01-12T20:49:53.442Z,3.40
2019-01-12T20:53:03.064Z,3.40
2019-01-12T20:55:52.276Z,3.40
2019-01-12T20:58:46.380Z,3.40
2019-01-12T21:01:42.909Z,3.40
2019-01-12T21:04:32.759Z,3.60
2019-01-12T21:07:36.615Z,3.50
2019-01-12T21:10:44.433Z,3.50
2019-01-12T21:14:02.647Z,3.70
2019-01-12T21:16:34.041Z,3.60
2019-01-12T21:19:01.714Z,4.10
2019-01-12T21:21:29.729Z,4.40
2019-01-12T21:23:57.564Z,4.40
2019-01-12T21:26:25.242Z,4.50
2019-01-12T21:28:52.876Z,4.40
2019-01-12T21:31:20.466Z,4.40
2019-01-12T21:33:48.166Z,4.40
2019-01-12T21:36:15.844Z,4.30
2019-01-12T21:38:43.502Z,4.10
2019-01-12T21:41:11.260Z,3.80
2019-01-12T21:43:38.944Z,3.70
2019-01-12T21:46:06.697Z,3.50
2019-01-12T21:48:34.332Z,3.40
2019-01-12T21:51:02.027Z,3.30
2019-01-12T21:53:29.665Z,3.30
2019-01-12T21:55:57.308Z,3.20
2019-01-12T21:58:24.928Z,3.10
2019-01-12T22:00:52.568Z,3.10
2019-01-12T22:03:20.204Z,3.10
2019-01-12T22:05:47.907Z,3.10
2019-01-12T22:08:15.628Z,3.10
2019-01-12T22:10:44.638Z,3.10
2019-01-12T22:13:12.409Z,3.10
2019-01-12T22:15:40.964Z,3.10
2019-01-12T22:18:09.975Z,3.10
2019-01-12T22:20:37.600Z,3.10
2019-01-12T22:23:05.208Z,3.30
2019-01-12T22:25:32.947Z,3.20
2019-01-12T22:28:00.718Z,3.20
2019-01-12T22:30:28.504Z,3.20
2019-01-12T22:32:56.144Z,3.20
2019-01-12T22:35:23.772Z,3.20
2019-01-12T22:37:51.425Z,3.20
2019-01-12T22:40:19.297Z,3.20
2019-01-12T22:42:46.918Z,3.20
2019-01-12T22:45:16.088Z,3.20
2019-01-12T22:47:43.888Z,3.30
2019-01-12T22:50:12.676Z,3.30
2019-01-12T22:52:40.513Z,3.30
2019-01-12T22:55:09.332Z,3.30
2019-01-12T22:57:36.972Z,3.30
2019-01-12T23:00:27.448Z,3.30
2019-01-12T23:02:55.301Z,3.30
2019-01-12T23:05:22.900Z,3.30
2019-01-12T23:07:50.537Z,3.30
2019-01-12T23:10:18.290Z,3.50
2019-01-12T23:12:46.012Z,3.40
2019-01-12T23:15:13.857Z,3.40
2019-01-12T23:17:41.566Z,3.40
2019-01-12T23:20:09.395Z,3.40
2019-01-12T23:22:37.057Z,3.40
2019-01-12T23:25:05.107Z,3.40
2019-01-12T23:27:32.940Z,3.70
2019-01-12T23:30:04.575Z,3.40
2019-01-12T23:32:30.129Z,3.40
2019-01-12T23:34:57.752Z,3.50
2019-01-12T23:37:25.660Z,3.40
2019-01-12T23:39:53.281Z,3.40
2019-01-12T23:42:21.121Z,3.40
2019-01-12T23:44:48.761Z,3.40
2019-01-12T23:47:16.454Z,3.40
2019-01-12T23:49:44.156Z,3.40
2019-01-12T23:52:11.786Z,3.40
2019-01-12T23:54:39.478Z,3.40
2019-01-12T23:57:07.237Z,3.40
2019-01-12T23:59:35.024Z,3.40
